Terminal Aerodrome Forecast
Issued by NWS

Home | Current Version | Previous Version | Graphics & Text | Print | Product List | Glossary On
Versions: 1 2 3 4 5 6 7 8 9 10 11 12 13 14 15 16 17 18 19 20 21 22
000
FTUS43 KTOP 011000 AAB
TAFFOE
TAF AMD
KFOE 011005Z 0110/0206 13007KT 3SM -RASN BR OVC005
     FM011200 34012G20KT 5SM -SN BR OVC006
     FM011800 32025G34KT 5SM -SN BR OVC008
     FM012200 32023G33KT P6SM OVC010
     FM020100 33017G22KT P6SM OVC013=

USA.gov is the U.S. government's official web portal to all federal, state and local government web resources and services.